Time;durP1;ratioP1;P1;durP2;ratioP2;P2;SDS_P1;SDS_P2;PMS_P1;PMS_P2;Temp;Humidity;BMP_temperature;BMP_pressure;BME280_temperature;BME280_humidity;BME280_pressure;Samples;Min_cycle;Max_cycle;Signal;HPM_P1;HPM_P2
2021/05/11 05:06:06;;;;;;;22.38;15.80;;;12.70;99.90;;;;;;6304223;28;860431;-80
2021/05/11 05:09:43;;;;;;;23.58;16.25;;;12.70;99.90;;;;;;6285908;28;20036;-87
2021/05/11 05:12:46;;;;;;;24.67;16.85;;;12.60;99.90;;;;;;6283148;28;20032;-80
2021/05/11 05:15:56;;;;;;;19.95;15.15;;;12.60;99.90;;;;;;6263633;28;20458;-80
2021/05/11 05:18:57;;;;;;;29.83;22.02;;;12.80;99.90;;;;;;6263357;28;20024;-82
2021/05/11 05:21:57;;;;;;;29.65;19.67;;;12.80;99.90;;;;;;6295749;28;20036;-80
2021/05/11 05:25:00;;;;;;;43.90;27.63;;;12.80;99.90;;;;;;6302996;28;20086;-80
2021/05/11 05:28:06;;;;;;;20.35;14.80;;;12.80;99.90;;;;;;6271205;28;20036;-81
2021/05/11 05:31:07;;;;;;;21.20;14.13;;;12.80;99.90;;;;;;6288479;28;20016;-83
2021/05/11 05:34:08;;;;;;;19.00;12.73;;;;;;;;;;6276124;28;20484;-86
2021/05/11 05:37:09;;;;;;;18.98;12.75;;;13.10;99.90;;;;;;6269762;28;20020;-85
2021/05/11 05:40:13;;;;;;;18.25;13.75;;;13.90;99.90;;;;;;6267997;28;20436;-86
2021/05/11 05:43:14;;;;;;;15.85;12.40;;;;;;;;;;6283489;28;20028;-85
2021/05/11 05:46:15;;;;;;;18.35;14.13;;;;;;;;;;6278675;28;20040;-82
2021/05/11 05:49:16;;;;;;;15.70;12.68;;;14.00;99.90;;;;;;6296722;28;20036;-81
2021/05/11 05:52:33;;;;;;;14.98;11.93;;;;;;;;;;6261056;28;20024;-81
2021/05/11 05:55:37;;;;;;;15.07;12.25;;;13.80;99.90;;;;;;6281140;28;20021;-81
2021/05/11 05:58:37;;;;;;;14.70;11.70;;;13.20;99.90;;;;;;6261709;28;20510;-80
2021/05/11 06:01:40;;;;;;;14.38;12.00;;;13.50;99.90;;;;;;6261604;28;20062;-81
2021/05/11 06:04:40;;;;;;;16.40;12.18;;;13.40;99.90;;;;;;6282359;28;20024;-81
2021/05/11 06:07:41;;;;;;;17.33;13.07;;;13.60;99.90;;;;;;6285759;28;20059;-81
2021/05/11 06:10:41;;;;;;;21.27;15.57;;;13.60;99.90;;;;;;6302999;28;20028;-80
2021/05/11 06:13:47;;;;;;;22.85;16.05;;;13.60;99.90;;;;;;6302569;28;20039;-81
2021/05/11 06:20:07;;;;;;;18.98;14.32;;;13.40;99.90;;;;;;6304951;28;20437;-81
2021/05/11 06:23:07;;;;;;;19.08;14.25;;;13.60;99.90;;;;;;6302575;28;20505;-79
2021/05/11 06:26:09;;;;;;;18.60;14.30;;;13.50;99.90;;;;;;6302241;28;20107;-81
2021/05/11 06:29:10;;;;;;;20.00;14.52;;;13.50;99.90;;;;;;6286183;28;20378;-83
2021/05/11 06:32:11;;;;;;;20.15;14.77;;;13.70;99.90;;;;;;6302557;28;20024;-80
2021/05/11 06:35:12;;;;;;;20.33;13.93;;;13.40;99.90;;;;;;6302377;28;20032;-83
2021/05/11 06:38:13;;;;;;;20.08;14.82;;;;;;;;;;6284784;28;20101;-82
2021/05/11 06:41:14;;;;;;;18.52;14.45;;;14.00;99.90;;;;;;6319117;28;20028;-81
2021/05/11 06:53:49;;;;;;;16.65;13.30;;;14.10;99.90;;;;;;6302407;28;20107;-82
2021/05/11 06:56:50;;;;;;;16.25;13.38;;;14.30;99.90;;;;;;6287935;28;20078;-82
2021/05/11 06:59:50;;;;;;;14.02;11.27;;;14.50;99.90;;;;;;6301915;28;20028;-82
2021/05/11 07:02:53;;;;;;;15.80;12.23;;;14.50;99.90;;;;;;6318827;28;20078;-82
2021/05/11 07:05:54;;;;;;;;;;;14.50;99.90;;;;;;6285643;28;20024;-84
2021/05/11 07:09:03;;;;;;;15.30;12.95;;;;;;;;;;6318567;28;20029;-82
2021/05/11 07:15:05;;;;;;;14.45;11.25;;;14.60;99.90;;;;;;6301219;28;20081;-83
2021/05/11 07:18:18;;;;;;;14.82;11.88;;;14.60;99.90;;;;;;6301038;28;20504;-84
2021/05/11 07:21:19;;;;;;;17.30;12.38;;;14.70;99.90;;;;;;6285713;28;20073;-83
2021/05/11 07:24:24;;;;;;;13.27;11.02;;;14.80;99.90;;;;;;6300991;28;20028;-83
2021/05/11 07:30:28;;;;;;;14.20;10.88;;;15.00;99.90;;;;;;6300425;28;20131;-83
2021/05/11 07:33:36;;;;;;;12.45;10.38;;;15.30;99.90;;;;;;6317932;28;20027;-84
2021/05/11 07:36:36;;;;;;;12.48;9.93;;;15.40;99.90;;;;;;6302577;28;20548;-84
2021/05/11 07:39:39;;;;;;;10.10;8.98;;;;;;;;;;6300779;28;20038;-83
2021/05/11 07:42:39;;;;;;;10.73;8.98;;;15.50;99.90;;;;;;6318611;28;20060;-83
2021/05/11 07:46:17;;;;;;;12.20;10.05;;;15.60;99.90;;;;;;6300757;28;20034;-84
2021/05/11 08:15:23;;;;;;;8.65;7.75;;;15.10;99.90;;;;;;6317364;28;20028;-83
2021/05/11 08:28:11;;;;;;;9.52;8.00;;;15.50;99.90;;;;;;6302550;28;20036;-83
2021/05/11 08:31:11;;;;;;;8.40;7.07;;;15.90;99.90;;;;;;6301192;28;20058;-83
2021/05/11 08:34:12;;;;;;;9.55;7.43;;;16.50;99.90;;;;;;6299737;28;20032;-83
2021/05/11 08:37:16;;;;;;;7.75;6.95;;;16.60;99.90;;;;;;6283164;28;20035;-83
2021/05/11 08:40:16;;;;;;;7.93;6.82;;;16.70;99.90;;;;;;6300998;28;20024;-83
2021/05/11 08:43:37;;;;;;;7.53;6.82;;;16.80;99.90;;;;;;6303662;28;20063;-83
2021/05/11 08:46:39;;;;;;;7.22;6.53;;;16.80;99.90;;;;;;6304448;28;20426;-83
2021/05/11 08:49:42;;;;;;;7.82;7.13;;;16.40;99.90;;;;;;6308942;28;20032;-82
2021/05/11 09:07:00;;;;;;;7.83;6.83;;;16.80;99.90;;;;;;6307247;28;20150;-83
2021/05/11 09:23:31;;;;;;;8.00;7.15;;;16.60;99.90;;;;;;6320967;28;20064;-83
2021/05/11 09:23:35;;;;;;;7.25;6.63;;;16.80;99.90;;;;;;6306988;28;20474;-83
2021/05/11 09:33:07;;;;;;;8.20;7.40;;;17.10;99.90;;;;;;6304227;28;20453;-83
2021/05/11 09:56:42;;;;;;;9.70;8.80;;;;;;;;;;6320559;28;20028;-83
2021/05/11 10:46:59;;;;;;;6.65;6.03;;;13.10;99.90;;;;;;6304506;28;20039;-83
2021/05/11 10:49:59;;;;;;;6.25;5.65;;;13.10;99.90;;;;;;6302708;28;20028;-83
2021/05/11 10:53:18;;;;;;;5.25;4.82;;;13.20;99.90;;;;;;6301757;28;20043;-83
2021/05/11 10:56:45;;;;;;;5.40;4.90;;;13.10;99.90;;;;;;6302698;28;20032;-83
2021/05/11 10:59:50;;;;;;;5.03;4.50;;;13.60;99.90;;;;;;6319256;28;20055;-83
2021/05/11 11:03:16;;;;;;;4.75;4.35;;;13.50;99.90;;;;;;6302852;28;20032;-83
2021/05/11 11:06:17;;;;;;;4.30;3.90;;;13.40;99.90;;;;;;6301202;28;20494;-83
2021/05/11 11:09:18;;;;;;;4.35;3.95;;;;;;;;;;6301511;28;20040;-83
2021/05/11 11:12:19;;;;;;;4.00;3.70;;;13.50;99.90;;;;;;6318616;28;20029;-83
2021/05/11 11:15:21;;;;;;;3.92;3.53;;;;;;;;;;6301365;28;20111;-83
2021/05/11 11:18:22;;;;;;;4.22;3.83;;;;;;;;;;6318618;28;20355;-83
2021/05/11 11:24:44;;;;;;;4.28;3.88;;;13.90;99.90;;;;;;6263524;28;20033;-83
2021/05/11 11:27:47;;;;;;;3.78;3.42;;;14.00;99.90;;;;;;6284125;28;20042;-83
2021/05/11 11:30:47;;;;;;;3.40;3.10;;;14.00;99.90;;;;;;6300786;28;20485;-83
2021/05/11 11:33:48;;;;;;;3.58;3.28;;;14.00;99.90;;;;;;6300848;28;20066;-83
2021/05/11 11:36:56;;;;;;;3.90;3.40;;;14.10;99.90;;;;;;6300972;28;20028;-84
2021/05/11 11:39:59;;;;;;;5.03;3.70;;;14.10;99.90;;;;;;6301261;28;20029;-83
2021/05/11 11:43:00;;;;;;;3.25;2.95;;;14.50;99.90;;;;;;6300763;28;20028;-83
2021/05/11 11:46:00;;;;;;;3.63;3.33;;;14.60;99.90;;;;;;6300595;28;20038;-83
2021/05/11 11:49:02;;;;;;;3.40;3.08;;;;;;;;;;6300727;28;20047;-83
2021/05/11 11:52:10;;;;;;;3.85;2.80;;;14.70;99.90;;;;;;6317751;28;20024;-83
2021/05/11 11:58:24;;;;;;;3.25;2.53;;;14.90;99.90;;;;;;6302006;28;20028;-83
2021/05/11 12:01:26;;;;;;;3.13;2.83;;;14.40;99.90;;;;;;6300399;28;20033;-83
2021/05/11 12:04:27;;;;;;;3.15;2.85;;;14.60;99.90;;;;;;6299999;28;20059;-83
2021/05/11 12:07:34;;;;;;;2.50;2.30;;;14.60;99.90;;;;;;6300121;28;20055;-83
2021/05/11 12:10:37;;;;;;;2.70;2.50;;;14.40;99.90;;;;;;6300154;28;20030;-84
2021/05/11 12:13:39;;;;;;;3.47;3.15;;;14.30;99.90;;;;;;6283885;28;20545;-83
2021/05/11 12:16:41;;;;;;;3.70;2.97;;;14.50;99.90;;;;;;6283254;28;20069;-84
2021/05/11 12:19:44;;;;;;;4.53;2.90;;;14.30;99.90;;;;;;6283256;28;20497;-83
2021/05/11 12:22:45;;;;;;;2.70;2.50;;;14.30;99.90;;;;;;6300570;28;20374;-83
2021/05/11 12:26:02;;;;;;;2.80;2.55;;;14.40;99.90;;;;;;6283108;28;20036;-82
2021/05/11 12:29:07;;;;;;;4.03;2.92;;;14.50;99.90;;;;;;6283883;28;20081;-82
2021/05/11 12:32:08;;;;;;;2.65;2.45;;;14.40;99.90;;;;;;6300296;28;20020;-81
2021/05/11 12:35:15;;;;;;;3.83;3.15;;;14.30;99.90;;;;;;6299827;28;20651;-81
2021/05/11 12:38:22;;;;;;;3.38;3.08;;;14.30;99.90;;;;;;6300208;28;20040;-80
2021/05/11 12:41:33;;;;;;;4.60;3.00;;;14.40;99.90;;;;;;6300696;28;20119;-80
2021/05/11 12:44:33;;;;;;;3.30;3.00;;;14.30;99.90;;;;;;6300719;28;20031;-79
2021/05/11 12:47:46;;;;;;;3.40;3.10;;;14.30;99.90;;;;;;6313122;28;20114;-79
2021/05/11 12:50:47;;;;;;;3.35;3.05;;;14.20;99.90;;;;;;6300234;28;20062;-80
2021/05/11 12:53:48;;;;;;;3.55;3.25;;;14.30;99.90;;;;;;6282955;28;20036;-79
2021/05/11 13:00:13;;;;;;;3.80;3.33;;;14.00;99.90;;;;;;6316308;28;20035;-81
2021/05/11 13:26:06;;;;;;;3.58;3.20;;;;;;;;;;6316814;28;20029;-80
2021/05/11 13:29:19;;;;;;;2.58;2.38;;;14.20;99.90;;;;;;6317320;28;20016;-80
2021/05/11 13:35:36;;;;;;;1.40;1.38;;;14.40;99.90;;;;;;6305307;28;20036;-80
2021/05/11 13:38:36;;;;;;;1.55;1.40;;;14.80;99.90;;;;;;6302825;28;20032;-80
2021/05/11 13:41:37;;;;;;;1.38;1.33;;;;;;;;;;6303889;28;20032;-83
2021/05/11 13:44:38;;;;;;;1.30;1.13;;;14.70;99.90;;;;;;6320291;28;20039;-81
2021/05/11 13:47:43;;;;;;;1.20;1.10;;;14.80;99.90;;;;;;6302704;28;20040;-81
2021/05/11 13:54:19;;;;;;;1.23;1.10;;;15.10;99.90;;;;;;6319924;28;20109;-82
2021/05/11 14:03:58;;;;;;;0.80;0.80;;;15.00;99.90;;;;;;6320042;28;20032;-81
2021/05/11 14:06:59;;;;;;;0.90;0.88;;;15.20;99.90;;;;;;6302740;28;20059;-80
2021/05/11 14:09:59;;;;;;;0.93;0.93;;;15.40;99.90;;;;;;6302486;28;20111;-82
2021/05/11 14:13:00;;;;;;;1.20;1.10;;;15.20;99.90;;;;;;6302715;28;20027;-81
2021/05/11 14:16:01;;;;;;;0.93;0.93;;;15.10;99.90;;;;;;6303487;28;20036;-81
2021/05/11 14:19:01;;;;;;;1.25;1.23;;;15.20;99.90;;;;;;6319410;28;20115;-81
2021/05/11 14:22:02;;;;;;;3.50;2.10;;;;;;;;;;6319997;28;20386;-82
2021/05/11 14:25:03;;;;;;;1.55;1.45;;;15.00;98.40;;;;;;6302598;28;20394;-81
2021/05/11 14:28:04;;;;;;;1.48;1.27;;;15.10;99.50;;;;;;6319195;28;20093;-80
2021/05/11 14:31:05;;;;;;;0.90;0.90;;;;;;;;;;6319007;28;20557;-81
2021/05/11 14:34:08;;;;;;;1.55;0.95;;;15.10;98.00;;;;;;6319632;28;20062;-82
2021/05/11 14:37:09;;;;;;;0.70;0.70;;;14.90;99.90;;;;;;6318713;28;20071;-83
2021/05/11 14:40:10;;;;;;;1.10;1.10;;;14.80;99.90;;;;;;6301878;28;20046;-81
2021/05/11 14:43:11;;;;;;;0.90;0.90;;;15.20;99.80;;;;;;6302478;28;20028;-80
2021/05/11 14:46:12;;;;;;;1.20;1.20;;;14.20;99.90;;;;;;6302376;28;20529;-82
2021/05/11 14:49:13;;;;;;;1.40;1.00;;;14.40;99.60;;;;;;6301987;28;20027;-81
2021/05/11 14:52:14;;;;;;;1.42;1.33;;;14.30;99.80;;;;;;6302210;28;20024;-81
2021/05/11 14:55:17;;;;;;;2.20;1.17;;;;;;;;;;6302179;28;20434;-80
2021/05/11 14:58:17;;;;;;;1.42;1.10;;;14.20;98.80;;;;;;6301220;28;20027;-80
2021/05/11 15:01:18;;;;;;;1.00;1.00;;;14.20;99.90;;;;;;6285222;28;20059;-84
2021/05/11 15:04:19;;;;;;;1.17;1.08;;;14.10;99.90;;;;;;6301828;28;20035;-81
2021/05/11 15:07:19;;;;;;;1.42;1.42;;;14.10;99.90;;;;;;6319744;28;20048;-83
2021/05/11 15:10:20;;;;;;;1.40;1.30;;;14.00;99.90;;;;;;6285178;28;20115;-86
2021/05/11 15:13:22;;;;;;;1.35;1.30;;;;;;;;;;6301646;28;20024;-86
2021/05/11 15:16:24;;;;;;;1.30;1.20;;;13.90;99.90;;;;;;6290758;28;20073;-85
2021/05/11 15:19:24;;;;;;;1.55;1.10;;;13.80;99.90;;;;;;6302417;28;20024;-85
2021/05/11 15:22:26;;;;;;;1.05;1.02;;;;;;;;;;6301911;28;20036;-81
2021/05/11 15:25:27;;;;;;;0.80;0.80;;;13.80;99.90;;;;;;6318574;28;20028;-84
2021/05/11 15:28:28;;;;;;;1.00;1.00;;;13.70;99.90;;;;;;6317807;28;20042;-84
2021/05/11 15:31:28;;;;;;;1.08;1.08;;;13.60;99.90;;;;;;6300311;28;20458;-82
2021/05/11 15:34:29;;;;;;;1.05;0.98;;;13.80;99.90;;;;;;6300000;28;20028;-85
2021/05/11 15:37:30;;;;;;;1.98;1.80;;;13.70;99.90;;;;;;6317801;28;20520;-84
2021/05/11 15:40:36;;;;;;;1.90;1.48;;;13.80;99.90;;;;;;6317717;28;20031;-85
2021/05/11 15:43:36;;;;;;;1.55;1.02;;;13.90;99.90;;;;;;6302578;28;20052;-84
2021/05/11 15:46:37;;;;;;;3.00;1.50;;;14.10;99.90;;;;;;6300014;28;20052;-82
2021/05/11 15:49:45;;;;;;;1.42;0.93;;;14.10;99.90;;;;;;6283275;28;20072;-80
2021/05/11 15:52:45;;;;;;;1.75;1.48;;;14.00;99.90;;;;;;6299901;28;20070;-80
2021/05/11 15:55:49;;;;;;;1.98;1.85;;;14.30;99.90;;;;;;6300178;28;20347;-79
2021/05/11 15:58:50;;;;;;;2.42;1.80;;;14.20;99.90;;;;;;6317931;28;20024;-80
2021/05/11 16:01:50;;;;;;;2.25;1.25;;;14.30;99.90;;;;;;6300283;28;20058;-80
2021/05/11 16:04:51;;;;;;;1.98;1.85;;;14.30;99.90;;;;;;6317359;28;20032;-82
2021/05/11 16:07:52;;;;;;;9.85;2.63;;;;;;;;;;6317243;28;20193;-81
2021/05/11 16:10:53;;;;;;;2.03;1.92;;;14.20;99.90;;;;;;6317343;28;20484;-80
2021/05/11 16:13:53;;;;;;;3.05;1.70;;;14.20;99.90;;;;;;6300838;28;20026;-82
2021/05/11 16:16:54;;;;;;;2.03;1.83;;;14.10;99.90;;;;;;6316845;28;20030;-84
2021/05/11 16:19:54;;;;;;;2.13;1.65;;;14.10;99.90;;;;;;6316951;28;20488;-82
2021/05/11 16:22:55;;;;;;;38.58;21.80;;;15.30;99.90;;;;;;6300792;28;20059;-82
2021/05/11 16:25:56;;;;;;;4.07;2.50;;;14.00;99.90;;;;;;6316390;28;20024;-82
2021/05/11 16:28:57;;;;;;;4.05;1.83;;;;;;;;;;6317119;28;20446;-80
2021/05/11 16:31:58;;;;;;;3.10;2.80;;;13.70;99.90;;;;;;6316946;28;20020;-82
2021/05/11 16:34:59;;;;;;;5.57;4.68;;;;;;;;;;6300297;28;20480;-81
2021/05/11 16:38:00;;;;;;;9.15;5.47;;;;;;;;;;6316360;28;20032;-80
2021/05/11 16:41:01;;;;;;;1.92;1.83;;;13.80;99.90;;;;;;6317107;28;20032;-85
2021/05/11 16:44:02;;;;;;;4.22;2.40;;;13.70;99.90;;;;;;6299934;28;20412;-83
2021/05/11 16:47:03;;;;;;;4.07;3.67;;;14.10;99.90;;;;;;6316704;28;20539;-82
2021/05/11 16:50:04;;;;;;;2.20;2.05;;;13.90;99.90;;;;;;6282522;28;20040;-80
2021/05/11 16:53:07;;;;;;;3.15;2.80;;;14.00;99.90;;;;;;6282069;28;20038;-83
2021/05/11 16:56:09;;;;;;;4.18;3.38;;;;;;;;;;6299234;28;20501;-81
2021/05/11 16:59:10;;;;;;;5.97;4.32;;;;;;;;;;6299853;28;20043;-81
2021/05/11 17:02:11;;;;;;;10.20;8.13;;;13.20;99.90;;;;;;6316078;28;20099;-80
2021/05/11 17:05:12;;;;;;;5.53;4.20;;;;;;;;;;6303395;28;20571;-81
2021/05/11 17:08:13;;;;;;;3.92;3.13;;;13.20;99.90;;;;;;6320959;28;20054;-80
2021/05/11 17:11:14;;;;;;;3.67;3.10;;;;;;;;;;6270694;28;20595;-81
2021/05/11 17:14:15;;;;;;;6.63;4.93;;;;;;;;;;6322230;28;20077;-82
2021/05/11 17:17:16;;;;;;;4.78;3.28;;;13.20;99.90;;;;;;6321000;28;20474;-82
2021/05/11 17:20:19;;;;;;;10.07;3.60;;;13.20;99.90;;;;;;6304023;28;20028;-81
2021/05/11 17:23:21;;;;;;;7.57;5.95;;;13.20;99.90;;;;;;6287610;28;20033;-80
2021/05/11 17:26:21;;;;;;;5.50;3.73;;;13.20;99.90;;;;;;6320631;28;20032;-82
2021/05/11 17:29:26;;;;;;;3.78;3.33;;;;;;;;;;6321319;28;20469;-85
2021/05/11 17:32:26;;;;;;;7.10;5.75;;;13.00;99.90;;;;;;6320145;28;20020;-84
2021/05/11 17:35:27;;;;;;;4.43;3.80;;;;;;;;;;6286673;28;20035;-83
2021/05/11 17:38:31;;;;;;;4.88;3.53;;;12.80;99.90;;;;;;6321795;28;20043;-85
2021/05/11 17:41:32;;;;;;;3.85;2.95;;;12.90;99.90;;;;;;6303888;28;20061;-87
2021/05/11 17:44:33;;;;;;;3.97;3.67;;;;;;;;;;6303900;28;20025;-87
2021/05/11 17:47:34;;;;;;;4.20;2.70;;;12.80;99.90;;;;;;6303722;28;20480;-86
2021/05/11 17:50:35;;;;;;;3.80;3.15;;;;;;;;;;6303001;28;20020;-80
2021/05/11 17:53:36;;;;;;;4.85;3.00;;;12.60;99.90;;;;;;6320079;28;20024;-81
2021/05/11 17:56:36;;;;;;;3.13;2.65;;;12.70;99.90;;;;;;6302782;28;20576;-79
2021/05/11 17:59:37;;;;;;;4.10;3.20;;;12.80;99.90;;;;;;6303339;28;20024;-81
2021/05/11 18:02:37;;;;;;;2.47;2.28;;;12.40;99.90;;;;;;6303122;28;20038;-82
2021/05/11 18:05:38;;;;;;;4.75;4.20;;;;;;;;;;6303088;28;20028;-80
2021/05/11 18:08:40;;;;;;;3.67;3.35;;;12.70;99.90;;;;;;6320960;28;20048;-80
2021/05/11 18:11:41;;;;;;;5.47;2.57;;;12.70;99.90;;;;;;6302816;28;20385;-80
2021/05/11 18:14:42;;;;;;;3.85;2.70;;;12.60;99.90;;;;;;6302473;28;20032;-81
2021/05/11 18:17:42;;;;;;;3.72;2.78;;;12.90;99.90;;;;;;6303384;28;20081;-81
2021/05/11 18:20:43;;;;;;;4.93;3.30;;;12.30;99.90;;;;;;6302928;28;20058;-81
2021/05/11 18:23:43;;;;;;;4.35;3.15;;;12.50;99.90;;;;;;6318755;28;20044;-80
2021/05/11 18:26:44;;;;;;;4.00;3.30;;;12.40;99.90;;;;;;6285093;28;20143;-79
2021/05/11 18:29:44;;;;;;;5.95;3.50;;;12.50;99.90;;;;;;6301797;28;20023;-81
2021/05/11 18:32:46;;;;;;;3.83;3.10;;;;;;;;;;6301727;28;20074;-80
2021/05/11 18:35:48;;;;;;;2.65;2.10;;;12.30;99.90;;;;;;6318972;28;20020;-80
2021/05/11 18:38:54;;;;;;;2.50;2.30;;;12.00;99.90;;;;;;6302164;28;20032;-80
2021/05/11 18:41:55;;;;;;;2.20;2.00;;;12.00;99.90;;;;;;6301263;28;20378;-80
2021/05/11 18:44:56;;;;;;;3.75;2.88;;;12.20;99.90;;;;;;6318991;28;20409;-80
2021/05/11 18:47:57;;;;;;;3.78;2.42;;;;;;;;;;6318748;28;20062;-80
2021/05/11 18:50:58;;;;;;;4.63;4.10;;;11.90;99.90;;;;;;6318791;28;20476;-80
2021/05/11 18:53:59;;;;;;;4.13;2.92;;;12.30;99.90;;;;;;6302085;28;20042;-80
2021/05/11 18:57:00;;;;;;;4.10;3.70;;;11.90;99.90;;;;;;6319974;28;20032;-80
2021/05/11 19:00:01;;;;;;;3.60;2.50;;;;;;;;;;6318859;28;20031;-80
2021/05/11 19:03:01;;;;;;;3.85;2.30;;;11.90;99.90;;;;;;6318079;28;20013;-81
2021/05/11 19:06:02;;;;;;;4.53;2.67;;;11.70;99.90;;;;;;6300226;28;20131;-80
2021/05/11 19:09:05;;;;;;;2.70;2.50;;;12.70;99.90;;;;;;6319299;28;20104;-80
2021/05/11 19:12:08;;;;;;;3.65;2.15;;;11.90;99.90;;;;;;6317708;28;20028;-81
2021/05/11 19:15:18;;;;;;;3.85;2.30;;;11.70;99.90;;;;;;6284167;28;20031;-81
2021/05/11 19:18:18;;;;;;;3.15;2.00;;;12.10;99.90;;;;;;6299502;28;20032;-81
2021/05/11 19:21:19;;;;;;;2.40;2.15;;;11.90;99.90;;;;;;6300753;28;20024;-82
2021/05/11 19:24:20;;;;;;;3.10;2.80;;;;;;;;;;6284104;28;20024;-81
2021/05/11 19:27:21;;;;;;;2.47;2.28;;;12.00;99.90;;;;;;6301080;28;20032;-81
2021/05/11 19:30:21;;;;;;;4.60;1.88;;;11.70;99.90;;;;;;6300453;28;20043;-80
2021/05/11 19:33:23;;;;;;;1.90;1.80;;;11.90;99.90;;;;;;6301308;28;20028;-80
2021/05/11 19:36:29;;;;;;;2.97;2.38;;;11.80;99.90;;;;;;6300125;28;20082;-81
2021/05/11 19:39:33;;;;;;;2.58;2.38;;;11.90;99.90;;;;;;6317328;28;20539;-83
2021/05/11 19:42:34;;;;;;;4.65;3.80;;;;;;;;;;6301167;28;20481;-82
2021/05/11 19:45:35;;;;;;;5.68;4.32;;;11.90;99.90;;;;;;6317406;28;20064;-81
2021/05/11 19:48:36;;;;;;;3.97;3.58;;;12.10;99.90;;;;;;6301371;28;20516;-81
2021/05/11 19:51:37;;;;;;;3.28;2.97;;;12.20;99.90;;;;;;6300818;28;20027;-80
2021/05/11 19:54:38;;;;;;;2.85;2.60;;;14.30;99.90;;;;;;6300839;28;20077;-80
2021/05/11 19:57:38;;;;;;;4.50;2.42;;;;;;;;;;6300471;28;20032;-80
2021/05/11 20:00:39;;;;;;;5.13;2.05;;;12.00;99.90;;;;;;6317187;28;20363;-81
2021/05/11 20:03:40;;;;;;;2.90;2.00;;;12.20;99.90;;;;;;6300550;28;20028;-81
2021/05/11 20:06:41;;;;;;;2.13;2.03;;;;;;;;;;6318145;28;20256;-81
2021/05/11 20:09:43;;;;;;;1.70;1.60;;;12.00;99.90;;;;;;6317389;28;20457;-81
2021/05/11 20:12:44;;;;;;;5.50;2.50;;;;;;;;;;6300315;28;20052;-81
2021/05/11 20:15:44;;;;;;;1.60;1.50;;;12.10;99.90;;;;;;6317083;28;20127;-79
2021/05/11 20:18:45;;;;;;;1.75;1.63;;;12.00;99.90;;;;;;6299901;28;20521;-80
2021/05/11 20:21:45;;;;;;;1.88;1.67;;;12.10;99.90;;;;;;6317150;28;20521;-79
2021/05/11 20:24:47;;;;;;;2.03;1.70;;;12.40;99.90;;;;;;6300297;28;20020;-81
2021/05/11 20:27:48;;;;;;;2.70;1.75;;;11.90;99.90;;;;;;6299814;28;20673;-80
2021/05/11 20:30:48;;;;;;;4.45;1.63;;;11.80;99.90;;;;;;6300230;28;20028;-80
2021/05/11 20:33:50;;;;;;;1.83;1.70;;;;;;;;;;6299750;28;20024;-81
2021/05/11 20:36:51;;;;;;;2.13;1.92;;;;;;;;;;6316621;28;20039;-81
2021/05/11 20:39:52;;;;;;;2.28;1.88;;;;;;;;;;6316563;28;20113;-80
2021/05/11 20:42:53;;;;;;;2.00;1.60;;;12.00;99.90;;;;;;6316990;28;20074;-80
2021/05/11 20:45:53;;;;;;;4.53;2.00;;;12.00;99.90;;;;;;6299869;28;20039;-79
2021/05/11 20:48:54;;;;;;;1.30;1.25;;;;;;;;;;6316417;28;20070;-80
2021/05/11 20:51:55;;;;;;;1.70;1.60;;;;;;;;;;6316405;28;20054;-80
2021/05/11 20:54:56;;;;;;;1.92;1.65;;;;;;;;;;6316537;28;20028;-81
2021/05/11 20:57:57;;;;;;;2.20;1.40;;;11.50;99.90;;;;;;6316731;28;20033;-80
2021/05/11 21:00:58;;;;;;;1.85;1.70;;;;;;;;;;6316108;28;20043;-83
2021/05/11 21:03:59;;;;;;;7.63;2.65;;;;;;;;;;6316262;28;20412;-79
2021/05/11 21:07:00;;;;;;;4.10;2.30;;;12.00;99.90;;;;;;6316025;28;20059;-81
2021/05/11 21:10:03;;;;;;;2.58;1.50;;;12.20;99.90;;;;;;6299874;28;20024;-78
2021/05/11 21:13:04;;;;;;;3.35;1.60;;;12.10;99.90;;;;;;6300018;28;20059;-79
2021/05/11 21:16:05;;;;;;;2.10;1.42;;;12.40;99.90;;;;;;6283093;28;20034;-83
2021/05/11 21:19:06;;;;;;;1.17;1.17;;;12.50;99.90;;;;;;6299480;28;20024;-84
2021/05/11 21:22:07;;;;;;;1.90;1.75;;;12.30;99.90;;;;;;6299593;28;20039;-83
2021/05/11 21:25:08;;;;;;;1.48;1.38;;;12.20;99.90;;;;;;6316106;28;20407;-84
2021/05/11 21:28:09;;;;;;;2.27;2.17;;;11.90;99.90;;;;;;6298039;28;20090;-83
2021/05/11 21:31:10;;;;;;;1.23;1.20;;;11.60;99.90;;;;;;6314594;28;20055;-83
2021/05/11 21:34:10;;;;;;;1.23;1.13;;;12.00;99.90;;;;;;6298636;28;20552;-84
2021/05/11 21:37:11;;;;;;;1.70;1.60;;;;;;;;;;6316122;28;20028;-84
2021/05/11 21:40:13;;;;;;;1.73;1.60;;;11.40;99.90;;;;;;6315070;28;20032;-84
2021/05/11 21:43:13;;;;;;;1.63;1.50;;;11.60;99.90;;;;;;6298699;28;20024;-83
2021/05/11 21:46:14;;;;;;;1.48;1.38;;;11.60;99.90;;;;;;6315623;28;20035;-83
2021/05/11 21:49:15;;;;;;;2.33;1.80;;;;;;;;;;6315791;28;20400;-84
2021/05/11 21:52:15;;;;;;;1.50;1.40;;;11.50;99.90;;;;;;6320123;28;20069;-83
2021/05/11 21:55:16;;;;;;;2.00;1.60;;;11.50;99.90;;;;;;6321583;28;20416;-83
2021/05/11 21:58:17;;;;;;;1.70;1.50;;;11.20;99.90;;;;;;6319724;28;20057;-83
2021/05/11 22:01:18;;;;;;;2.22;1.45;;;11.50;99.90;;;;;;6320128;28;20024;-83
2021/05/11 22:04:18;;;;;;;1.95;1.50;;;11.50;99.90;;;;;;6286355;28;20028;-83
2021/05/11 22:07:19;;;;;;;1.52;1.23;;;;;;;;;;6286210;28;20048;-83
2021/05/11 22:10:28;;;;;;;3.70;2.50;;;11.20;99.90;;;;;;6321312;28;20085;-83
2021/05/11 22:13:29;;;;;;;2.42;1.33;;;11.10;99.90;;;;;;6303204;28;20048;-83
2021/05/11 22:16:31;;;;;;;1.70;1.60;;;11.10;99.90;;;;;;6319666;28;20038;-83
2021/05/11 22:19:31;;;;;;;1.73;1.63;;;11.40;99.90;;;;;;6285975;28;20024;-83
2021/05/11 22:22:32;;;;;;;1.40;1.30;;;11.20;99.90;;;;;;6319811;28;20035;-82
2021/05/11 22:25:34;;;;;;;4.35;1.92;;;;;;;;;;6319362;28;20114;-82
2021/05/11 22:28:35;;;;;;;1.45;1.40;;;11.10;99.90;;;;;;6320422;28;20036;-82
2021/05/11 22:31:36;;;;;;;1.63;1.52;;;11.40;99.90;;;;;;6302547;28;20487;-83
2021/05/11 22:34:36;;;;;;;2.13;1.50;;;11.40;99.90;;;;;;6302571;28;20034;-82
2021/05/11 22:37:37;;;;;;;1.80;1.50;;;11.30;99.90;;;;;;6302566;28;20028;-82
2021/05/11 22:40:37;;;;;;;2.47;1.27;;;11.00;99.90;;;;;;6318886;28;20062;-82
2021/05/11 22:43:41;;;;;;;1.42;1.33;;;11.30;99.90;;;;;;6319320;28;20056;-82
2021/05/11 22:46:42;;;;;;;1.33;1.27;;;;;;;;;;6318964;28;20052;-82
2021/05/11 22:49:42;;;;;;;4.25;2.30;;;11.20;99.90;;;;;;6318974;28;20076;-82
2021/05/11 22:52:43;;;;;;;1.45;1.35;;;11.00;99.90;;;;;;6301952;28;20028;-82
2021/05/11 22:55:48;;;;;;;1.40;1.30;;;11.30;99.90;;;;;;6318888;28;20028;-82
2021/05/11 22:58:48;;;;;;;1.30;1.30;;;11.40;99.90;;;;;;6318667;28;20032;-82
2021/05/11 23:01:49;;;;;;;1.90;1.55;;;11.10;99.90;;;;;;6301400;28;20100;-82
2021/05/11 23:04:50;;;;;;;1.48;1.38;;;;;;;;;;6318546;28;20537;-82
2021/05/11 23:07:50;;;;;;;1.77;1.67;;;11.00;99.90;;;;;;6319433;28;20055;-81
2021/05/11 23:10:51;;;;;;;1.75;1.48;;;10.90;99.90;;;;;;6301518;28;20039;-82
2021/05/11 23:13:52;;;;;;;2.28;1.55;;;11.00;99.90;;;;;;6318467;28;20517;-82
2021/05/11 23:16:56;;;;;;;1.35;1.25;;;10.80;99.90;;;;;;6301521;28;20028;-81
2021/05/11 23:20:00;;;;;;;1.20;1.20;;;11.00;99.90;;;;;;6301663;28;20024;-82
2021/05/11 23:23:01;;;;;;;1.42;1.33;;;;;;;;;;6301769;28;20047;-81
2021/05/11 23:26:02;;;;;;;1.23;1.13;;;11.00;99.90;;;;;;6319500;28;20024;-82
2021/05/11 23:29:03;;;;;;;1.10;1.10;;;10.70;99.90;;;;;;6300761;28;20070;-81
2021/05/11 23:32:04;;;;;;;1.63;1.20;;;10.80;99.90;;;;;;6300561;28;20042;-82
2021/05/11 23:35:05;;;;;;;1.10;1.10;;;10.80;99.90;;;;;;6317539;28;20032;-81
2021/05/11 23:38:06;;;;;;;1.52;1.20;;;10.60;99.90;;;;;;6284045;28;20066;-82
2021/05/11 23:41:07;;;;;;;1.70;1.60;;;10.80;99.90;;;;;;6300977;28;20024;-82
2021/05/11 23:44:07;;;;;;;1.27;1.25;;;10.70;99.90;;;;;;6300685;28;20063;-82
2021/05/11 23:47:08;;;;;;;1.30;1.20;;;;;;;;;;6300339;28;20028;-82
2021/05/11 23:50:10;;;;;;;1.38;1.27;;;10.80;99.90;;;;;;6317372;28;20016;-82
2021/05/11 23:53:10;;;;;;;1.80;1.30;;;10.70;99.90;;;;;;6318613;28;20461;-82
2021/05/11 23:56:11;;;;;;;1.30;1.17;;;10.40;99.90;;;;;;6283764;28;20067;-83
2021/05/11 23:59:11;;;;;;;2.28;1.70;;;10.50;99.90;;;;;;6300317;28;20469;-82
